Nearby METAR Reports

(scroll for additional cities)

 

KPSP - Palm Springs, California, USA
Distance from station: WNW 7mi, 11km
Updated: Thu, 04-Jun-2020 11:53am PDT
Clear
Clear
 Wind from calm
Wind: Calm
Temperature: 106°F , 41°C
Dew Point: 48°F , 9°C
Humidity: 14%
Barometer: 29.73 inHg , 1006.8 hPa
Clouds: Clear
Visibility: 10 miles , 16 km
2020/06/04 18:53 KPSP 041853Z 00000KT 10SM CLR 41/09 A2973 RMK AO2 SLP060 T04060089
KTRM - Thermal/Palm Spg, California, USA
Distance from station: SE 16mi, 26km
Updated: Thu, 04-Jun-2020 11:52am PDT
Clear
Clear
 Wind from SE
Wind: SE 5 mph , 7 km/h
Temperature: 102°F , 39°C
Dew Point: 52°F , 11°C
Humidity: 18%
Barometer: 29.67 inHg , 1004.7 hPa
Clouds: Clear
Visibility: 10 miles , 16 km
2020/06/04 18:52 KTRM 041852Z AUTO 13004KT 10SM CLR 39/11 A2967 RMK AO2 SLP050 T03890111
 
KNXP - Twentynine Palms, California, USA
Distance from station: NNE 37mi, 60km
Updated: Thu, 04-Jun-2020 11:56am PDT
Clear
Clear
 Wind from SE
Wind: SE 17 mph , 28 km/h, Gust: 24 mph , 39 km/h
Temperature: 102°F , 39°C
Dew Point: 36°F , 2°C
Humidity: 10%
Barometer: 29.87 inHg , 1011.5 hPa
Clouds: Clear
Visibility: 10 miles , 16 km
2020/06/04 18:56 KNXP 041856Z AUTO 13015G21KT 10SM CLR 39/02 A2987 RMK AO2 SLP070 T03940022
KL35 - Big Bear City, California, USA
Distance from station: NW 43mi, 69km
Updated: Thu, 04-Jun-2020 12:35pm PDT
Clear
Clear
 Wind from SW
Wind: SW 3 mph , 6 km/h
Temperature: 79°F , 26°C
Dew Point: 30°F , -1°C
Humidity: 17%
Barometer: 30.17 inHg , 1021.7 hPa
Clouds: Clear
Visibility: 10 miles , 16 km
2020/06/04 19:35 KL35 041935Z AUTO 23003KT 10SM CLR 26/M01 A3017 RMK AO2
 
KF70 - Murrieta/Temecula, California, USA
Distance from station: WSW 45mi, 73km
Updated: Thu, 04-Jun-2020 12:35pm PDT
Clear
Clear
 Wind from S
Wind: S 10 mph , 17 km/h
Temperature: 81°F , 27°C
Heat Index: 81°F , 27°C
Dew Point: 57°F , 14°C
Humidity: 45%
Barometer: 29.87 inHg , 1011.5 hPa
Clouds: Clear
Visibility: 10 miles , 16 km
2020/06/04 19:35 KF70 041935Z AUTO 18009KT 10SM CLR 27/14 A2987 RMK AO1
KRIV - Riverside/March, California, USA
Distance from station: W 51mi, 82km
Updated: Thu, 04-Jun-2020 11:56am PDT
Clear
Clear
 Wind from WNW
Wind: WNW 7 mph , 11 km/h
Temperature: 88°F , 31°C
Dew Point: 55°F , 13°C
Humidity: 33%
Barometer: 29.86 inHg , 1011.2 hPa
Clouds: Clear
Visibility: 10 miles , 16 km
2020/06/04 18:56 KRIV 041856Z AUTO 29006KT 10SM CLR 31/13 A2986 RMK AO2 SLP098 T03050133
 
KSBD - San Bernardino, California, USA
Distance from station: WNW 54mi, 86km
Updated: Thu, 04-Jun-2020 11:47am PDT
Haze, Clear
Haze, Clear
 Wind from WSW
Wind: WSW 7 mph , 11 km/h
Temperature: 86°F , 30°C
Dew Point: 48°F , 9°C
Humidity: 27%
Barometer: 29.86 inHg , 1011.2 hPa
Summary: Haze
Clouds: Clear
Visibility: 5 miles , 8 km
2020/06/04 18:47 KSBD 041847Z 25006KT 5SM HZ SKC 30/09 A2986
KRNM - Ramona, California, USA
Distance from station: SSW 60mi, 96km
Updated: Thu, 04-Jun-2020 11:53am PDT
Clear
Clear
 Wind from WNW
Wind: WNW 8 mph , 13 km/h
Temperature: 77°F , 25°C
Dew Point: 61°F , 16°C
Humidity: 57%
Barometer: 29.89 inHg , 1012.2 hPa
Clouds: Clear
Visibility: 10 miles , 16 km
2020/06/04 18:53 KRNM 041853Z 30007KT 10SM CLR 25/16 A2989 RMK AO2 SLP107 T02500161
 
KRAL - Riverside, California, USA
Distance from station: W 62mi, 100km
Updated: Thu, 04-Jun-2020 11:53am PDT
Clear
Clear
 Wind from varies
Wind: varies 6 mph , 9 km/h
Temperature: 84°F , 29°C
Dew Point: 55°F , 13°C
Humidity: 37%
Barometer: 29.85 inHg , 1010.8 hPa
Clouds: Clear
Visibility: 10 miles , 16 km
2020/06/04 18:53 KRAL 041853Z VRB05KT 10SM CLR 29/13 A2985 RMK AO2 SLP090 T02940133
KOKB - Oceanside, California, USA
Distance from station: SW 68mi, 109km
Updated: Thu, 04-Jun-2020 11:52am PDT
Overcast
Overcast
 Wind from WSW
Wind: WSW 8 mph , 13 km/h
Temperature: 68°F , 20°C
Dew Point: 63°F , 17°C
Humidity: 83%
Barometer: 29.89 inHg , 1012.2 hPa
Clouds: Overcast
Visibility: 7 miles , 11 km
Cloud details: Overcast 1100 ft
2020/06/04 18:52 KOKB 041852Z AUTO 24007KT 7SM OVC011 20/17 A2989 RMK AO2 SLP119 T02000172
 
KONT - Ontario, California, USA
Distance from station: WNW 71mi, 114km
Updated: Thu, 04-Jun-2020 11:53am PDT
Clear
Clear
 Wind from WSW
Wind: WSW 10 mph , 17 km/h
Temperature: 84°F , 29°C
Dew Point: 55°F , 13°C
Humidity: 37%
Barometer: 29.86 inHg , 1011.2 hPa
Clouds: Clear
Visibility: 10 miles , 16 km
2020/06/04 18:53 KONT 041853Z 25009KT 10SM CLR 29/13 A2986 RMK AO2 SLP093 T02890133
KNJK - El Centro Naf, California, USA
Distance from station: SSE 78mi, 126km
Updated: Thu, 04-Jun-2020 11:56am PDT
Few Clouds
Few Clouds
 Wind from E
Wind: E 5 mph , 7 km/h
Temperature: 102°F , 39°C
Dew Point: 39°F , 4°C
Humidity: 11%
Barometer: 29.69 inHg , 1005.4 hPa
Clouds: Few Clouds
Visibility: 10 miles , 16 km
Cloud details: Few Clouds 15000 ft
2020/06/04 18:56 KNJK 041856Z 10004KT 10SM FEW150 39/04 A2969 RMK AO2 SLP071 T03890044 $
 
KSEE - San Diego/Santee, California, USA
Distance from station: SSW 74mi, 120km
Updated: Thu, 04-Jun-2020 12:47pm PDT
Few Clouds
Few Clouds
 Wind from WSW
Wind: WSW 7 mph , 11 km/h
Temperature: 72°F , 22°C
Dew Point: 59°F , 15°C
Humidity: 65%
Barometer: 29.88 inHg , 1011.9 hPa
Clouds: Few Clouds
Visibility: 10 miles , 16 km
Cloud details: Few Clouds 3500 ft
2020/06/04 19:47 KSEE 041947Z 25006KT 10SM FEW035 22/15 A2988
KCNO - Chino, California, USA
Distance from station: W 72mi, 116km
Updated: Thu, 04-Jun-2020 11:53am PDT
Clear
Clear
 Wind from W
Wind: W 9 mph , 15 km/h
Temperature: 88°F , 31°C
Dew Point: 57°F , 14°C
Humidity: 35%
Barometer: 29.86 inHg , 1011.2 hPa
Clouds: Clear
Visibility: 10 miles , 16 km
2020/06/04 18:53 KCNO 041853Z 28008KT 10SM CLR 31/14 A2986 RMK AO2 SLP105 T03060139

Metar display script from Saratoga-Weather.org